Terminal Aerodrome Forecast
Issued by NWS Cleveland, OH

Home | Current Version | Previous Version | Graphics & Text | Print | Product List | Glossary On
Versions: 1 2 3 4 5 6 7 8 9 10 11 12 13 14 15 16 17
000
FTUS41 KCLE 221727
TAFCAK
TAF
KCAK 221727Z 2218/2318 26010KT P6SM VCTS SCT012CB OVC025
      TEMPO 2219/2222 VRB20G30KT 1 1/2SM -TSRA OVC012CB
     FM222300 32007KT 5SM BR OVC012
     FM231400 01007KT P6SM BKN035=

USA.gov is the U.S. government's official web portal to all federal, state and local government web resources and services.